Ogdensburg, New Jersey
Current Conditions -  °F | °C
As of 6:53 AM on Tuesday 27 Jan 2015 (Local Time) from KFWN Reporting Station
Light Snow Light Snow  
Wind Chill: -9°   Ceiling: 3400
Heat Index: -6°   Visibility: 4mi
Dew Point: -8°   Wind: 5mph
Humidity: 82%   Direction: 330°NNW
Pressure: 29.7"   Gusts: NA
Location:  41.08°N, 74.59°W
Report Text: KFWN 271153Z AUTO 33004KT 4SM -SN OVC034 M06/M08 A2970 RMK AO2 SLP064 P0000 60003 70004 T10561083 11050 21061 55001
Loading
Personal Weather Stations






























Interactive Weather Map New forecast layout! Learn more

10-Day Weather Forecast

Advertisements
Track Severe Weather on mobile